Time;durP1;ratioP1;P1;durP2;ratioP2;P2;SDS_P1;SDS_P2;PMS_P1;PMS_P2;Temp;Humidity;BMP_temperature;BMP_pressure;BME280_temperature;BME280_humidity;BME280_pressure;Samples;Min_cycle;Max_cycle;Signal;HPM_P1;HPM_P2
2022/02/10 00:06:36;;;;;;;2.58;1.17;;;;;;;;;;1689238;29;21836;-58
2022/02/10 00:08:08;;;;;;;2.75;1.25;;;;;;;;;;1684495;29;21606;-58
2022/02/10 00:15:18;;;;;;;1.95;1.27;;;;;;;;;;1689824;29;21698;-58
2022/02/10 00:16:30;;;;;;;2.45;1.50;;;;;;;;;;1687506;29;22131;-59
2022/02/10 00:17:34;;;;;;;4.35;1.20;;;;;;;;;;1687050;29;21668;-58
2022/02/10 00:18:48;;;;;;;2.65;1.45;;;;;;;;;;1687604;29;21546;-58
2022/02/10 00:20:07;;;;;;;4.20;1.42;;;;;;;;;;1684608;29;21528;-58
2022/02/10 00:21:03;;;;;;;13.68;1.38;;;;;;;;;;1684530;29;21476;-58
2022/02/10 00:22:00;;;;;;;9.05;1.13;;;;;;;;;;1684484;29;21624;-58
2022/02/10 00:23:15;;;;;;;6.18;1.30;;;;;;;;;;1686867;29;21512;-58
2022/02/10 00:24:33;;;;;;;3.90;1.30;;;;;;;;;;1682897;29;21567;-58
2022/02/10 00:26:05;;;;;;;1.30;0.93;;;;;;;;;;1680897;29;22148;-58
2022/02/10 00:35:01;;;;;;;4.25;0.88;;;;;;;;;;1684279;29;21625;-58
2022/02/10 00:35:55;;;;;;;3.95;1.05;;;;;;;;;;1688741;29;21556;-57
2022/02/10 00:36:58;;;;;;;2.85;1.15;;;;;;;;;;1689014;29;21571;-58
2022/02/10 00:37:57;;;;;;;15.93;0.93;;;;;;;;;;1689676;29;21857;-58
2022/02/10 00:39:04;;;;;;;1.48;0.95;;;;;;;;;;1689634;29;21671;-58
2022/02/10 00:40:10;;;;;;;2.35;1.33;;;;;;;;;;1690557;29;21498;-58
2022/02/10 00:41:03;;;;;;;5.28;1.30;;;;;;;;;;1689180;29;22020;-57
2022/02/10 00:41:54;;;;;;;8.05;1.00;;;;;;;;;;1690836;29;21545;-57
2022/02/10 00:42:46;;;;;;;1.80;1.00;;;;;;;;;;1690710;29;21500;-58
2022/02/10 00:43:38;;;;;;;1.52;1.00;;;;;;;;;;1687655;29;22093;-57
2022/02/10 00:44:29;;;;;;;1.63;0.88;;;;;;;;;;1690607;29;21579;-57
2022/02/10 00:45:23;;;;;;;1.33;0.80;;;;;;;;;;1690670;29;21697;-57
2022/02/10 00:46:14;;;;;;;4.22;0.80;;;;;;;;;;1686854;29;22170;-58
2022/02/10 00:47:07;;;;;;;1.67;1.00;;;;;;;;;;1676513;29;21498;-57
2022/02/10 00:48:00;;;;;;;4.90;1.08;;;;;;;;;;1677038;29;21563;-58
2022/02/10 00:48:52;;;;;;;3.40;1.08;;;;;;;;;;1684683;29;21552;-58
2022/02/10 00:49:44;;;;;;;4.28;0.82;;;;;;;;;;1687753;29;21573;-58
2022/02/10 00:50:39;;;;;;;8.35;1.30;;;;;;;;;;1690504;29;21553;-57
2022/02/10 00:51:31;;;;;;;5.07;1.00;;;;;;;;;;1690718;29;21716;-58
2022/02/10 00:52:24;;;;;;;11.88;1.30;;;;;;;;;;1689070;29;21587;-58
2022/02/10 00:53:19;;;;;;;2.55;1.00;;;;;;;;;;1688728;29;21544;-58
2022/02/10 00:54:11;;;;;;;3.42;0.93;;;;;;;;;;1690692;29;22025;-58
2022/02/10 00:55:03;;;;;;;5.55;1.08;;;;;;;;;;1690618;29;22047;-58
2022/02/10 00:55:55;;;;;;;3.00;1.00;;;;;;;;;;1688358;29;21649;-58
2022/02/10 00:56:46;;;;;;;1.75;0.80;;;;;;;;;;1689152;29;21587;-58
2022/02/10 00:57:39;;;;;;;7.72;1.20;;;;;;;;;;1690620;29;21601;-57
2022/02/10 00:58:32;;;;;;;1.73;0.90;;;;;;;;;;1690536;29;21541;-58
2022/02/10 00:59:35;;;;;;;1.73;1.15;;;;;;;;;;1690059;29;21990;-58
2022/02/10 01:11:23;;;;;;;3.28;0.95;;;;;;;;;;1684804;29;21535;-58
2022/02/10 01:12:31;;;;;;;0.73;0.60;;;;;;;;;;1677180;29;21708;-58
2022/02/10 01:13:43;;;;;;;4.07;0.80;;;;;;;;;;1683349;29;21674;-58
2022/02/10 01:24:32;;;;;;;1.17;0.88;;;;;;;;;;1690571;29;21561;-58
2022/02/10 01:30:17;;;;;;;1.95;0.70;;;;;;;;;;1663694;29;21630;-57
2022/02/10 01:31:10;;;;;;;0.77;0.70;;;;;;;;;;1662277;29;21916;-58
2022/02/10 01:32:02;;;;;;;1.08;0.70;;;;;;;;;;1650011;29;21501;-58
2022/02/10 01:32:58;;;;;;;1.25;0.70;;;;;;;;;;1651096;29;21505;-58
2022/02/10 01:33:50;;;;;;;4.18;0.82;;;;;;;;;;1659870;29;21593;-58
2022/02/10 01:34:47;;;;;;;0.77;0.70;;;;;;;;;;1663841;29;21516;-58
2022/02/10 01:35:39;;;;;;;0.93;0.68;;;;;;;;;;1663098;29;21627;-58
2022/02/10 01:36:30;;;;;;;0.82;0.75;;;;;;;;;;1685384;29;21571;-58
2022/02/10 01:37:22;;;;;;;0.60;0.60;;;;;;;;;;1690393;29;21519;-58
2022/02/10 01:38:15;;;;;;;4.80;0.80;;;;;;;;;;1690300;29;21538;-58
2022/02/10 01:39:08;;;;;;;2.90;0.77;;;;;;;;;;1690448;29;21668;-58
2022/02/10 01:40:07;;;;;;;4.47;0.70;;;;;;;;;;1687179;29;22094;-58
2022/02/10 01:41:32;;;;;;;0.80;0.60;;;;;;;;;;1690570;29;21535;-58
2022/02/10 01:43:06;;;;;;;2.97;0.70;;;;;;;;;;1683483;29;21533;-57
2022/02/10 01:58:10;;;;;;;0.70;0.60;;;;;;;;;;1668500;29;21675;-58
2022/02/10 02:03:42;;;;;;;5.85;0.70;;;;;;;;;;1687329;29;21503;-58
2022/02/10 02:04:34;;;;;;;1.02;0.65;;;;;;;;;;1683302;29;21485;-58
2022/02/10 02:05:34;;;;;;;8.90;1.13;;;;;;;;;;1683318;29;21633;-58
2022/02/10 02:06:29;;;;;;;;;;;;;;;;;;1686155;29;22228;-58
2022/02/10 02:07:28;;;;;;;8.73;0.88;;;;;;;;;;1687433;29;21414;-58
2022/02/10 02:08:25;;;;;;;1.63;0.55;;;;;;;;;;1690339;29;21591;-58
2022/02/10 02:09:18;;;;;;;2.13;0.65;;;;;;;;;;1688306;29;21927;-58
2022/02/10 02:10:10;;;;;;;1.27;0.90;;;;;;;;;;1690373;29;21570;-58
2022/02/10 02:11:03;;;;;;;2.28;0.75;;;;;;;;;;1690859;29;21674;-58
2022/02/10 02:11:55;;;;;;;1.70;0.60;;;;;;;;;;1690539;29;21900;-58
2022/02/10 02:12:49;;;;;;;2.28;0.70;;;;;;;;;;1689927;29;21540;-58
2022/02/10 02:13:40;;;;;;;1.80;0.75;;;;;;;;;;1691722;29;21538;-58
2022/02/10 02:14:32;;;;;;;0.65;0.65;;;;;;;;;;1686423;29;21627;-58
2022/02/10 02:15:25;;;;;;;1.33;0.52;;;;;;;;;;1687334;29;22053;-58
2022/02/10 02:16:17;;;;;;;1.02;0.55;;;;;;;;;;1689792;29;22064;-58
2022/02/10 02:17:08;;;;;;;0.70;0.70;;;;;;;;;;1690322;29;21492;-58
2022/02/10 02:18:00;;;;;;;3.08;0.60;;;;;;;;;;1682966;29;21602;-58
2022/02/10 02:18:52;;;;;;;6.47;0.50;;;;;;;;;;1684434;29;21553;-58
2022/02/10 02:19:44;;;;;;;4.93;0.70;;;;;;;;;;1688746;29;21584;-58
2022/02/10 02:20:35;;;;;;;1.27;0.40;;;;;;;;;;1691624;29;21585;-58
2022/02/10 02:21:30;;;;;;;5.75;0.40;;;;;;;;;;1689730;29;21509;-58
2022/02/10 02:22:23;;;;;;;18.20;0.90;;;;;;;;;;1691371;29;21577;-58
2022/02/10 02:23:16;;;;;;;18.52;1.30;;;;;;;;;;1691339;29;22157;-58
2022/02/10 02:24:09;;;;;;;8.10;0.85;;;;;;;;;;1691440;29;21622;-58
2022/02/10 02:25:01;;;;;;;28.25;2.25;;;;;;;;;;1689819;29;21538;-57
2022/02/10 02:25:59;;;;;;;11.70;1.30;;;;;;;;;;1689426;29;21558;-58
2022/02/10 02:26:55;;;;;;;10.70;1.55;;;;;;;;;;1691266;29;21615;-58
2022/02/10 02:27:49;;;;;;;6.82;0.70;;;;;;;;;;1684872;29;21670;-58
2022/02/10 02:28:45;;;;;;;6.38;1.20;;;;;;;;;;1682835;29;21547;-58
2022/02/10 02:29:40;;;;;;;16.30;0.88;;;;;;;;;;1683484;29;21548;-58
2022/02/10 02:30:38;;;;;;;7.85;0.55;;;;;;;;;;1687166;29;21629;-57
2022/02/10 02:31:36;;;;;;;4.38;0.95;;;;;;;;;;1684308;29;21493;-58
2022/02/10 02:32:34;;;;;;;7.65;0.70;;;;;;;;;;1684476;29;22155;-58
2022/02/10 02:36:09;;;;;;;9.93;0.68;;;;;;;;;;1686092;29;22196;-57
2022/02/10 02:38:36;;;;;;;5.63;0.50;;;;;;;;;;1656678;29;21854;-58
2022/02/10 03:05:23;;;;;;;12.13;0.70;;;;;;;;;;1664343;29;22934;-57
2022/02/10 03:06:19;;;;;;;7.20;1.08;;;;;;;;;;1680215;29;22094;-57
2022/02/10 03:07:17;;;;;;;26.33;1.88;;;;;;;;;;1690393;29;22093;-57
2022/02/10 03:08:14;;;;;;;8.18;1.05;;;;;;;;;;1689514;29;21548;-57
2022/02/10 03:09:10;;;;;;;12.30;0.82;;;;;;;;;;1686369;29;21636;-57
2022/02/10 03:10:15;;;;;;;5.72;0.70;;;;;;;;;;1690118;29;21513;-58
2022/02/10 03:11:10;;;;;;;1.40;0.70;;;;;;;;;;1691210;29;22142;-57
2022/02/10 03:12:01;;;;;;;7.78;0.55;;;;;;;;;;1690636;29;22121;-58
2022/02/10 03:12:52;;;;;;;2.00;0.70;;;;;;;;;;1688904;29;21648;-58
2022/02/10 03:13:49;;;;;;;4.95;0.80;;;;;;;;;;1690882;29;21535;-57
2022/02/10 03:14:47;;;;;;;1.02;0.68;;;;;;;;;;1689061;29;21669;-56
2022/02/10 03:15:49;;;;;;;3.83;0.60;;;;;;;;;;1687366;29;21637;-57
2022/02/10 03:18:09;;;;;;;6.40;0.90;;;;;;;;;;1684904;29;21550;-57
2022/02/10 03:19:05;;;;;;;3.45;0.80;;;;;;;;;;1689860;29;21505;-57
2022/02/10 03:20:07;;;;;;;1.30;0.75;;;;;;;;;;1691158;29;22014;-57
2022/02/10 03:21:18;;;;;;;2.25;1.83;;;;;;;;;;1691183;29;21554;-57
2022/02/10 03:22:30;;;;;;;3.83;1.05;;;;;;;;;;1691177;29;21607;-58
2022/02/10 04:01:01;;;;;;;2.67;1.02;;;;;;;;;;1687017;29;21663;-58
2022/02/10 04:02:23;;;;;;;3.90;1.05;;;;;;;;;;1690245;29;21672;-58
2022/02/10 04:03:42;;;;;;;1.58;1.00;;;;;;;;;;1684350;29;21595;-58
2022/02/10 04:05:06;;;;;;;2.40;1.00;;;;;;;;;;1690872;29;21545;-58
2022/02/10 04:06:25;;;;;;;1.55;0.80;;;;;;;;;;1689183;29;21545;-58
2022/02/10 04:08:44;;;;;;;2.05;1.42;;;;;;;;;;1690912;29;21692;-58
2022/02/10 04:11:08;;;;;;;1.60;0.95;;;;;;;;;;1684869;29;22211;-58
2022/02/10 04:12:21;;;;;;;1.17;1.05;;;;;;;;;;1683637;29;21614;-58
2022/02/10 04:13:21;;;;;;;1.92;0.93;;;;;;;;;;1685708;29;21546;-58
2022/02/10 04:14:20;;;;;;;;;;;;;;;;;;1683279;29;22000;-58
2022/02/10 04:15:21;;;;;;;1.40;1.13;;;;;;;;;;1683852;29;21489;-58
2022/02/10 04:16:18;;;;;;;1.80;1.23;;;;;;;;;;1686142;29;22080;-58
2022/02/10 04:17:30;;;;;;;1.83;0.95;;;;;;;;;;1688118;29;21581;-58
2022/02/10 04:20:56;;;;;;;1.00;0.90;;;;;;;;;;1684261;29;21546;-58
2022/02/10 04:21:56;;;;;;;3.03;0.82;;;;;;;;;;1690818;29;21690;-58
2022/02/10 04:23:01;;;;;;;1.45;0.75;;;;;;;;;;1689936;29;21652;-58
2022/02/10 04:24:10;;;;;;;1.67;1.02;;;;;;;;;;1689705;29;21594;-58
2022/02/10 04:25:26;;;;;;;1.27;1.10;;;;;;;;;;1690728;29;21676;-58
2022/02/10 04:26:29;;;;;;;1.67;1.10;;;;;;;;;;1689226;29;21555;-57
2022/02/10 04:27:38;;;;;;;1.63;0.98;;;;;;;;;;1688889;29;21538;-58
2022/02/10 04:28:44;;;;;;;2.75;1.10;;;;;;;;;;1684410;29;21567;-58
2022/02/10 04:30:03;;;;;;;2.35;1.20;;;;;;;;;;1686227;29;22164;-58
2022/02/10 04:31:03;;;;;;;4.82;0.85;;;;;;;;;;1683883;29;21585;-58
2022/02/10 04:37:45;;;;;;;1.75;1.10;;;;;;;;;;1662697;29;21559;-58
2022/02/10 04:39:10;;;;;;;1.23;0.93;;;;;;;;;;1673182;29;21788;-58
2022/02/10 04:43:11;;;;;;;1.80;1.08;;;;;;;;;;1672070;29;22080;-58
2022/02/10 04:53:16;;;;;;;1.35;1.02;;;;;;;;;;1681194;29;21785;-58
2022/02/10 04:53:36;;;;;;;1.10;0.75;;;;;;;;;;1683963;29;21807;-58
2022/02/10 04:55:57;;;;;;;1.27;0.50;;;;;;;;;;1682551;29;21361;-58
2022/02/10 04:58:44;;;;;;;1.23;0.65;;;;;;;;;;1660612;29;21722;-58
2022/02/10 05:01:09;;;;;;;4.15;0.82;;;;;;;;;;1639086;30;21635;-58
2022/02/10 05:02:29;;;;;;;1.00;0.70;;;;;;;;;;1651006;29;21573;-58
2022/02/10 05:03:57;;;;;;;3.05;0.80;;;;;;;;;;1663510;29;21604;-58
2022/02/10 05:05:25;;;;;;;2.00;0.98;;;;;;;;;;1677562;29;21649;-58
2022/02/10 05:12:56;;;;;;;1.13;0.73;;;;;;;;;;1675150;29;21521;-58
2022/02/10 05:19:39;;;;;;;1.25;0.73;;;;;;;;;;1677298;29;21538;-59
2022/02/10 05:20:59;;;;;;;3.03;0.80;;;;;;;;;;1683446;29;22102;-58
2022/02/10 05:23:21;;;;;;;2.20;0.95;;;;;;;;;;1681153;29;21497;-58
2022/02/10 05:24:27;;;;;;;1.65;0.75;;;;;;;;;;1677815;29;21950;-58
2022/02/10 05:31:37;;;;;;;1.00;0.82;;;;;;;;;;1682816;29;21533;-58
2022/02/10 05:33:46;;;;;;;2.00;1.10;;;;;;;;;;1678520;29;21857;-58
2022/02/10 05:34:42;;;;;;;2.05;0.90;;;;;;;;;;1682510;29;21725;-58
2022/02/10 05:35:37;;;;;;;1.70;1.15;;;;;;;;;;1683441;29;21535;-58
2022/02/10 05:36:32;;;;;;;1.15;0.75;;;;;;;;;;1681595;29;21746;-58
2022/02/10 05:37:30;;;;;;;1.30;0.88;;;;;;;;;;1680070;29;21587;-57
2022/02/10 05:38:27;;;;;;;0.88;0.70;;;;;;;;;;1681461;29;22001;-58
2022/02/10 05:39:23;;;;;;;1.27;0.75;;;;;;;;;;1683939;29;21807;-58
2022/02/10 05:40:22;;;;;;;1.15;0.70;;;;;;;;;;1684015;29;21607;-58
2022/02/10 05:44:56;;;;;;;0.88;0.80;;;;;;;;;;1672117;29;21684;-57
2022/02/10 05:46:01;;;;;;;2.50;0.95;;;;;;;;;;1683067;29;22100;-58
2022/02/10 05:47:19;;;;;;;1.48;0.70;;;;;;;;;;1681830;29;22013;-58
2022/02/10 05:48:33;;;;;;;4.72;0.90;;;;;;;;;;1681598;29;22151;-58
2022/02/10 05:50:01;;;;;;;2.25;1.08;;;;;;;;;;1683874;29;21541;-58
2022/02/10 05:51:28;;;;;;;1.60;0.70;;;;;;;;;;1683910;29;21568;-58
2022/02/10 05:52:56;;;;;;;3.92;0.90;;;;;;;;;;1683968;29;21594;-58
2022/02/10 05:54:02;;;;;;;1.50;0.90;;;;;;;;;;1683556;29;21974;-58
2022/02/10 05:55:14;;;;;;;3.30;0.98;;;;;;;;;;1683855;29;22048;-58
2022/02/10 05:56:13;;;;;;;18.85;1.88;;;;;;;;;;1679816;29;22374;-58
2022/02/10 05:57:25;;;;;;;3.80;1.67;;;;;;;;;;1682851;29;21552;-58
2022/02/10 05:58:25;;;;;;;2.88;0.65;;;;;;;;;;1683059;29;21778;-58
2022/02/10 05:59:52;;;;;;;12.23;0.82;;;;;;;;;;1684001;29;22222;-58
2022/02/10 06:02:23;;;;;;;9.20;1.25;;;;;;;;;;1678655;29;22840;-58
2022/02/10 06:48:42;;;;;;;2.60;0.93;;;;;;;;;;1681428;29;21580;-57
2022/02/10 06:49:54;;;;;;;2.42;1.10;;;;;;;;;;1681290;29;21828;-58
2022/02/10 06:51:07;;;;;;;3.63;1.08;;;;;;;;;;1688582;29;21534;-58
2022/02/10 06:52:06;;;;;;;1.60;0.90;;;;;;;;;;1689091;29;21662;-58
2022/02/10 06:53:14;;;;;;;2.22;1.10;;;;;;;;;;1679785;29;22115;-58
2022/02/10 06:54:17;;;;;;;3.30;0.93;;;;;;;;;;1683684;29;21601;-58
2022/02/10 06:55:20;;;;;;;13.45;0.90;;;;;;;;;;1677545;29;21548;-58
2022/02/10 06:56:40;;;;;;;8.68;1.10;;;;;;;;;;1681992;29;22220;-58
2022/02/10 07:03:43;;;;;;;;;;;;;;;;;;1664738;29;22214;-58
2022/02/10 07:04:58;;;;;;;10.25;1.20;;;;;;;;;;1678421;29;21411;-58
2022/02/10 07:06:09;;;;;;;5.43;1.33;;;;;;;;;;1678124;29;21546;-58
2022/02/10 07:07:28;;;;;;;13.07;1.50;;;;;;;;;;1681622;29;22085;-58
2022/02/10 07:09:45;;;;;;;5.35;1.83;;;;;;;;;;1684587;29;21525;-58
2022/02/10 07:11:00;;;;;;;3.42;2.38;;;;;;;;;;1682696;29;21992;-58
2022/02/10 07:13:34;;;;;;;6.82;1.88;;;;;;;;;;1479969;32;21634;-57
2022/02/10 07:17:19;;;;;;;3.70;2.88;;;;;;;;;;1669020;29;21848;-57
2022/02/10 07:49:54;;;;;;;6.95;3.75;;;;;;;;;;1682217;29;21522;-57
2022/02/10 07:54:33;;;;;;;18.40;4.05;;;;;;;;;;1665356;29;21670;-57
2022/02/10 07:57:47;;;;;;;23.25;4.80;;;;;;;;;;1681918;29;21639;-57
2022/02/10 08:50:19;;;;;;;75.45;36.10;;;;;;;;;;1671242;29;21818;-59
2022/02/10 08:52:09;;;;;;;68.38;30.10;;;;;;;;;;1671250;29;21621;-61
2022/02/10 08:56:31;;;;;;;263.23;113.45;;;;;;;;;;1658269;29;22014;-58
2022/02/10 08:57:31;;;;;;;194.48;83.45;;;;;;;;;;1659446;29;21618;-58
2022/02/10 09:02:13;;;;;;;181.65;61.47;;;;;;;;;;1679610;29;21616;-59
2022/02/10 09:03:20;;;;;;;140.50;54.97;;;;;;;;;;1680606;29;21558;-60
2022/02/10 09:05:33;;;;;;;129.35;48.55;;;;;;;;;;1683019;29;21546;-61
2022/02/10 09:06:44;;;;;;;133.45;44.95;;;;;;;;;;1682192;29;22086;-60
2022/02/10 09:08:05;;;;;;;127.70;44.63;;;;;;;;;;1683333;29;21581;-60
2022/02/10 09:10:40;;;;;;;104.28;34.33;;;;;;;;;;1664255;29;21743;-60
2022/02/10 09:13:10;;;;;;;80.93;25.13;;;;;;;;;;1651419;29;21506;-60
2022/02/10 09:19:05;;;;;;;48.40;16.75;;;;;;;;;;1671710;29;22180;-59
2022/02/10 09:20:28;;;;;;;45.22;16.92;;;;;;;;;;1669674;29;21541;-59
2022/02/10 09:55:26;;;;;;;12.15;4.13;;;;;;;;;;1672186;29;21590;-59
2022/02/10 09:56:48;;;;;;;11.32;4.13;;;;;;;;;;1671926;29;21530;-59
2022/02/10 09:58:00;;;;;;;15.32;3.08;;;;;;;;;;1671089;29;21562;-59
2022/02/10 09:59:08;;;;;;;13.75;3.47;;;;;;;;;;1669423;29;22085;-58
2022/02/10 10:00:15;;;;;;;8.77;2.70;;;;;;;;;;1673780;29;21535;-60
2022/02/10 10:01:17;;;;;;;11.73;2.88;;;;;;;;;;1669035;29;21879;-57
2022/02/10 10:02:14;;;;;;;7.65;2.90;;;;;;;;;;1670851;29;21704;-59
2022/02/10 10:03:13;;;;;;;15.73;2.90;;;;;;;;;;1672080;29;21728;-59
2022/02/10 10:04:13;;;;;;;8.80;2.95;;;;;;;;;;1672959;29;21866;-58
2022/02/10 10:05:15;;;;;;;3.47;2.10;;;;;;;;;;1673086;29;22118;-58
2022/02/10 10:06:15;;;;;;;6.10;2.10;;;;;;;;;;1670875;29;21973;-58
2022/02/10 10:07:21;;;;;;;46.85;33.63;;;;;;;;;;1674869;29;21523;-60
2022/02/10 10:08:28;;;;;;;22.63;19.95;;;;;;;;;;1671632;29;21564;-59
2022/02/10 10:09:38;;;;;;;17.95;15.27;;;;;;;;;;1674557;29;22195;-59
2022/02/10 10:10:52;;;;;;;19.92;12.82;;;;;;;;;;1674332;29;21610;-60
2022/02/10 10:13:37;;;;;;;12.45;9.15;;;;;;;;;;1680578;29;22152;-59
2022/02/10 10:14:35;;;;;;;8.68;7.40;;;;;;;;;;1683824;29;22118;-59
2022/02/10 10:15:42;;;;;;;15.23;12.07;;;;;;;;;;1683005;29;22132;-59
2022/02/10 10:16:47;;;;;;;27.80;25.00;;;;;;;;;;1681649;29;21623;-59
2022/02/10 10:17:57;;;;;;;16.00;14.63;;;;;;;;;;1681434;29;21514;-58
2022/02/10 10:19:04;;;;;;;17.02;14.25;;;;;;;;;;1683517;29;22142;-58
2022/02/10 10:20:07;;;;;;;13.45;10.75;;;;;;;;;;1681045;29;21513;-59
2022/02/10 10:22:48;;;;;;;9.63;8.23;;;;;;;;;;1663373;29;21652;-59
2022/02/10 10:25:21;;;;;;;8.65;7.20;;;;;;;;;;1677676;29;22092;-58
2022/02/10 10:26:35;;;;;;;7.18;6.40;;;;;;;;;;1681422;29;21747;-61
2022/02/10 10:27:40;;;;;;;6.22;5.60;;;;;;;;;;1683539;29;21530;-59
2022/02/10 10:50:27;;;;;;;;;;;;;;;;;;1668131;29;21771;-59
2022/02/10 10:51:30;;;;;;;4.75;1.70;;;;;;;;;;1680335;29;21521;-59
2022/02/10 10:52:51;;;;;;;7.97;1.50;;;;;;;;;;1683914;29;21571;-59
2022/02/10 10:53:49;;;;;;;6.45;1.65;;;;;;;;;;1677092;29;21876;-58
2022/02/10 10:54:49;;;;;;;2.88;1.77;;;;;;;;;;1676221;29;21740;-59
2022/02/10 10:55:48;;;;;;;2.72;1.85;;;;;;;;;;1681660;29;21652;-59
2022/02/10 10:56:44;;;;;;;4.63;1.95;;;;;;;;;;1683044;29;21660;-59
2022/02/10 10:57:39;;;;;;;6.70;1.77;;;;;;;;;;1682952;29;21533;-59
2022/02/10 10:58:37;;;;;;;4.55;1.73;;;;;;;;;;1682518;29;21509;-60
2022/02/10 10:59:36;;;;;;;2.35;1.52;;;;;;;;;;1682833;29;21602;-58
2022/02/10 11:00:56;;;;;;;3.25;1.73;;;;;;;;;;1683888;29;22261;-59
2022/02/10 11:07:38;;;;;;;7.10;2.50;;;;;;;;;;1661585;29;21702;-60
2022/02/10 11:37:11;;;;;;;8.38;2.05;;;;;;;;;;1681207;29;21681;-60
2022/02/10 11:38:22;;;;;;;3.08;1.80;;;;;;;;;;1682549;29;21628;-60
2022/02/10 11:39:27;;;;;;;10.30;2.08;;;;;;;;;;1682439;29;21603;-60
2022/02/10 11:40:21;;;;;;;19.30;2.80;;;;;;;;;;1683895;29;21692;-60
2022/02/10 11:42:49;;;;;;;7.05;1.92;;;;;;;;;;1675837;29;21658;-60
2022/02/10 11:43:47;;;;;;;9.75;1.73;;;;;;;;;;1683166;29;21930;-60
2022/02/10 11:46:58;;;;;;;7.88;2.53;;;;;;;;;;1682470;29;21541;-59
2022/02/10 12:37:04;;;;;;;43.58;6.80;;;;;;;;;;1656332;29;21697;-58
2022/02/10 13:23:31;;;;;;;55.40;15.60;;;;;;;;;;1683786;29;21681;-58
2022/02/10 13:27:31;;;;;;;64.90;13.65;;;;;;;;;;1682596;29;22101;-57
2022/02/10 13:33:05;;;;;;;39.95;11.23;;;;;;;;;;1683348;29;21613;-58
2022/02/10 13:48:26;;;;;;;55.28;8.02;;;;;;;;;;1678537;29;21770;-58
2022/02/10 14:09:16;;;;;;;28.50;5.53;;;;;;;;;;1677758;29;21519;-58
2022/02/10 14:10:42;;;;;;;22.63;5.57;;;;;;;;;;1677346;29;21501;-57
2022/02/10 14:12:56;;;;;;;24.95;5.30;;;;;;;;;;1661295;29;22089;-57
2022/02/10 14:13:54;;;;;;;30.60;5.03;;;;;;;;;;1660046;29;21509;-58
2022/02/10 14:14:50;;;;;;;25.65;5.28;;;;;;;;;;1672444;29;21559;-58
2022/02/10 14:15:59;;;;;;;32.13;5.40;;;;;;;;;;1681844;29;21555;-60
2022/02/10 14:16:55;;;;;;;40.67;6.63;;;;;;;;;;1682087;29;21664;-59
2022/02/10 14:17:51;;;;;;;55.33;19.95;;;;;;;;;;1682399;29;21651;-58
2022/02/10 14:18:51;;;;;;;69.88;28.05;;;;;;;;;;1682489;29;21665;-56
2022/02/10 14:19:57;;;;;;;58.25;27.70;;;;;;;;;;1684091;29;21525;-59
2022/02/10 14:20:57;;;;;;;79.22;43.15;;;;;;;;;;1683695;29;21518;-57
2022/02/10 14:22:01;;;;;;;89.18;48.70;;;;;;;;;;1683867;29;21514;-58
2022/02/10 14:23:04;;;;;;;97.22;48.30;;;;;;;;;;1681394;29;21561;-58
2022/02/10 14:27:26;;;;;;;94.88;46.60;;;;;;;;;;1658138;29;21711;-57
2022/02/10 14:28:19;;;;;;;78.65;43.72;;;;;;;;;;1681214;29;21580;-58
2022/02/10 14:29:12;;;;;;;71.65;45.90;;;;;;;;;;1683516;29;21601;-56
2022/02/10 14:30:05;;;;;;;76.43;45.13;;;;;;;;;;1679387;29;22208;-58
2022/02/10 14:30:58;;;;;;;89.57;46.00;;;;;;;;;;1683030;29;22059;-57
2022/02/10 14:31:53;;;;;;;81.07;47.17;;;;;;;;;;1682146;29;21652;-60
2022/02/10 14:32:45;;;;;;;81.57;45.55;;;;;;;;;;1682435;29;21513;-57
2022/02/10 14:33:39;;;;;;;80.97;41.25;;;;;;;;;;1683922;29;22071;-59
2022/02/10 14:34:31;;;;;;;71.55;40.40;;;;;;;;;;1683917;29;21515;-58
2022/02/10 14:35:28;;;;;;;66.68;38.70;;;;;;;;;;1681815;29;21629;-60
2022/02/10 14:36:27;;;;;;;62.53;35.92;;;;;;;;;;1680109;29;21828;-59
2022/02/10 14:37:31;;;;;;;64.22;35.75;;;;;;;;;;1683216;29;21604;-59
2022/02/10 14:38:39;;;;;;;66.25;33.70;;;;;;;;;;1683674;29;21677;-57
2022/02/10 14:39:51;;;;;;;64.70;33.60;;;;;;;;;;1682080;29;22192;-59
2022/02/10 14:41:17;;;;;;;52.00;31.52;;;;;;;;;;1682811;29;21579;-58
2022/02/10 14:42:36;;;;;;;55.03;29.23;;;;;;;;;;1682643;29;21623;-58
2022/02/10 15:10:51;;;;;;;47.03;27.63;;;;;;;;;;1678349;29;21528;-59
2022/02/10 15:11:23;;;;;;;8.52;5.32;;;;;;;;;;1681429;29;21723;-57
2022/02/10 15:17:32;;;;;;;4.78;3.88;;;;;;;;;;1638572;30;21621;-58
2022/02/10 15:20:42;;;;;;;12.25;4.10;;;;;;;;;;1663575;29;21546;-57
2022/02/10 15:49:56;;;;;;;16.27;13.68;;;;;;;;;;1683784;29;21505;-57
2022/02/10 15:52:28;;;;;;;16.92;13.98;;;;;;;;;;1675574;29;22120;-56
2022/02/10 15:54:47;;;;;;;14.57;13.27;;;;;;;;;;1681568;29;21776;-58
2022/02/10 16:11:00;;;;;;;6.87;5.97;;;;;;;;;;1678976;29;21890;-57
2022/02/10 16:14:20;;;;;;;5.93;5.43;;;;;;;;;;1656830;29;21901;-57
2022/02/10 16:17:07;;;;;;;5.90;5.30;;;;;;;;;;1682412;29;22151;-57
2022/02/10 16:18:03;;;;;;;5.25;4.18;;;;;;;;;;1684147;29;21563;-57
2022/02/10 16:18:56;;;;;;;8.23;4.43;;;;;;;;;;1679657;29;21629;-58
2022/02/10 16:19:47;;;;;;;7.72;5.60;;;;;;;;;;1669992;29;21515;-56
2022/02/10 16:20:46;;;;;;;4.53;4.13;;;;;;;;;;1670735;29;21543;-57
2022/02/10 16:21:41;;;;;;;5.07;4.25;;;;;;;;;;1678375;29;21561;-58
2022/02/10 18:18:44;;;;;;;39.83;29.90;;;;;;;;;;1470583;33;21641;-61
2022/02/10 18:19:40;;;;;;;46.33;32.58;;;;;;;;;;1683038;29;22401;-63
2022/02/10 18:20:39;;;;;;;45.47;31.70;;;;;;;;;;1682872;29;22121;-61
2022/02/10 18:22:52;;;;;;;42.85;30.27;;;;;;;;;;1676490;29;22167;-61
2022/02/10 18:23:59;;;;;;;53.05;34.72;;;;;;;;;;1681513;29;21692;-59
2022/02/10 18:25:20;;;;;;;48.33;33.53;;;;;;;;;;1682289;29;21570;-60
2022/02/10 18:26:15;;;;;;;57.47;38.75;;;;;;;;;;1678918;29;22077;-57
2022/02/10 18:27:20;;;;;;;45.08;34.40;;;;;;;;;;1682575;29;21486;-58
2022/02/10 18:28:29;;;;;;;53.30;33.63;;;;;;;;;;1682341;29;21523;-61
2022/02/10 18:29:35;;;;;;;125.93;69.47;;;;;;;;;;1681280;29;21653;-61
2022/02/10 18:30:48;;;;;;;57.97;38.25;;;;;;;;;;1677721;29;22229;-59
2022/02/10 19:07:53;;;;;;;156.57;124.60;;;;;;;;;;1675011;29;22123;-60
2022/02/10 19:08:57;;;;;;;144.30;117.40;;;;;;;;;;1680425;29;21588;-61
2022/02/10 19:09:54;;;;;;;139.15;109.85;;;;;;;;;;1676370;29;21565;-60
2022/02/10 19:10:48;;;;;;;133.40;105.22;;;;;;;;;;1681054;29;21979;-60
2022/02/10 19:11:45;;;;;;;128.60;98.72;;;;;;;;;;1681947;29;21662;-60
2022/02/10 19:12:44;;;;;;;123.07;92.22;;;;;;;;;;1682816;29;21589;-60
2022/02/10 19:13:37;;;;;;;113.95;89.60;;;;;;;;;;1680159;29;21913;-60
2022/02/10 19:14:35;;;;;;;110.40;84.75;;;;;;;;;;1680930;29;22054;-60
2022/02/10 19:15:33;;;;;;;105.10;81.95;;;;;;;;;;1682451;29;21638;-60
2022/02/10 19:16:25;;;;;;;105.53;74.57;;;;;;;;;;1677645;29;22139;-60
2022/02/10 19:17:16;;;;;;;93.20;71.53;;;;;;;;;;1680285;29;21620;-60
2022/02/10 19:18:10;;;;;;;93.15;69.00;;;;;;;;;;1681917;29;22046;-61
2022/02/10 19:19:02;;;;;;;83.10;63.17;;;;;;;;;;1680174;29;21710;-60
2022/02/10 19:19:56;;;;;;;84.72;62.15;;;;;;;;;;1681451;29;21606;-60
2022/02/10 19:20:47;;;;;;;83.07;58.75;;;;;;;;;;1682070;29;21607;-61
2022/02/10 19:21:39;;;;;;;90.07;57.92;;;;;;;;;;1682031;29;22100;-61
2022/02/10 19:22:31;;;;;;;74.53;49.75;;;;;;;;;;1680574;29;22147;-60
2022/02/10 19:23:25;;;;;;;68.72;47.40;;;;;;;;;;1679970;29;21764;-60
2022/02/10 19:24:17;;;;;;;72.50;47.45;;;;;;;;;;1682472;29;21868;-60
2022/02/10 19:25:09;;;;;;;61.05;44.63;;;;;;;;;;1680819;29;21487;-60
2022/02/10 19:26:01;;;;;;;57.22;42.85;;;;;;;;;;1680771;29;22120;-60
2022/02/10 19:26:53;;;;;;;60.47;42.20;;;;;;;;;;1680415;29;21489;-60
2022/02/10 19:27:44;;;;;;;61.90;41.38;;;;;;;;;;1681831;29;21906;-61
2022/02/10 19:28:37;;;;;;;52.13;37.88;;;;;;;;;;1680365;29;21635;-61
2022/02/10 19:29:28;;;;;;;51.45;37.30;;;;;;;;;;1677085;29;21908;-61
2022/02/10 19:30:23;;;;;;;49.63;34.55;;;;;;;;;;1678013;29;22125;-61
2022/02/10 19:31:20;;;;;;;55.92;35.10;;;;;;;;;;1660722;29;22322;-61
2022/02/10 19:32:16;;;;;;;46.00;33.28;;;;;;;;;;1664927;29;21811;-60
2022/02/10 19:33:11;;;;;;;42.65;31.45;;;;;;;;;;1675939;29;21635;-61
2022/02/10 19:34:04;;;;;;;40.85;30.80;;;;;;;;;;1678168;29;21509;-60
2022/02/10 19:34:58;;;;;;;45.88;29.58;;;;;;;;;;1674065;29;21543;-60
2022/02/10 19:35:52;;;;;;;46.03;28.15;;;;;;;;;;1676367;29;21519;-60
2022/02/10 19:36:44;;;;;;;35.92;27.40;;;;;;;;;;1673951;29;21676;-60
2022/02/10 19:37:36;;;;;;;36.25;24.77;;;;;;;;;;1675065;29;21986;-60
2022/02/10 19:38:30;;;;;;;36.25;26.30;;;;;;;;;;1676964;29;21582;-60
2022/02/10 19:39:23;;;;;;;36.00;25.42;;;;;;;;;;1677997;29;22229;-60
2022/02/10 19:40:14;;;;;;;29.88;24.20;;;;;;;;;;1676226;29;21678;-60
2022/02/10 19:41:06;;;;;;;30.90;24.45;;;;;;;;;;1673940;29;22103;-60
2022/02/10 19:41:57;;;;;;;36.90;24.80;;;;;;;;;;1678136;29;21620;-60
2022/02/10 19:42:50;;;;;;;36.25;24.35;;;;;;;;;;1672286;29;21890;-60
2022/02/10 19:43:43;;;;;;;33.17;22.58;;;;;;;;;;1674025;29;21629;-60
2022/02/10 19:44:37;;;;;;;37.05;24.02;;;;;;;;;;1677270;29;22027;-60
2022/02/10 19:45:28;;;;;;;31.85;21.63;;;;;;;;;;1666935;29;21520;-60
2022/02/10 19:46:21;;;;;;;28.80;22.10;;;;;;;;;;1673857;29;21570;-60
2022/02/10 19:47:12;;;;;;;31.73;21.05;;;;;;;;;;1674613;29;21614;-60
2022/02/10 19:48:05;;;;;;;28.70;21.17;;;;;;;;;;1678042;29;21672;-60